Time;durP1;ratioP1;P1;durP2;ratioP2;P2;SDS_P1;SDS_P2;PMS_P1;PMS_P2;Temp;Humidity;BMP_temperature;BMP_pressure;BME280_temperature;BME280_humidity;BME280_pressure;Samples;Min_cycle;Max_cycle;Signal;HPM_P1;HPM_P2
2020/12/14 12:35:13;;;;;;;;;;;;;;;;;;3693162;37;19962;-67
2020/12/14 12:49:02;;;;;;;;;;;;;;;;;;3711074;37;19952;-63
2020/12/14 12:51:27;;;;;;;;;;;;;;;;;;3728002;37;19956;-63
2020/12/14 12:53:53;;;;;;;;;;;;;;;;;;3735268;37;19983;-72
2020/12/14 12:56:25;;;;;;;;;;;;;;;;;;3650235;38;1674680;-61
2020/12/14 12:58:50;;;;;;;;;;;;;;;;;;3673927;38;19970;-62
2020/12/14 13:01:16;;;;;;;;;;;;;;;;;;3739910;38;19972;-61
2020/12/14 13:03:42;;;;;;;;;;;;;;;;;;3715837;38;20043;-61
2020/12/14 13:06:07;;;;;;;;;;;;;;;;;;3713641;37;106157;-60
2020/12/14 13:08:33;;;;;;;;;;;;;;;;;;3590313;38;19967;-64
2020/12/14 13:10:58;;;;;;;;;;;;;;;;;;3591307;38;20191;-62
2020/12/14 13:13:24;;;;;;;;;;;;;;;;;;3750229;38;20032;-62
2020/12/14 13:15:50;;;;;;;;;;;;;;;;;;3733947;37;20059;-61
2020/12/14 13:18:15;;;;;;;;;;;;;;;;;;3746361;38;19978;-64
2020/12/14 13:20:52;;;;;;;;;;;;;;;;;;;;;
2020/12/14 13:27:25;;;;;;;;;;;;;;;;;;3523361;37;20715;-65
2020/12/14 13:30:50;;;;;;;;;;;;;;;;;;3661035;37;20339;-62
2020/12/14 13:33:15;;;;;;;;;;;;;;;;;;4321472;32;19973;-70
2020/12/14 13:35:49;;;;;;;;;;;;;;;;;;3679814;37;19959;-62
2020/12/14 13:39:59;;;;;;;;;;;;;;;;;;3776551;37;20374;-62
2020/12/14 13:42:24;;;;;;;;;;;;;;;;;;4340532;32;19998;-62
2020/12/14 13:44:50;;;;;;;;;;;;;;;;;;4347055;32;20009;-63
2020/12/14 13:47:15;;;;;;;;;;;;;;;;;;4362465;32;20118;-63
2020/12/14 13:49:41;;;;;;;;;;;;;;;;;;4359592;32;19998;-63
2020/12/14 13:52:07;;;;;;;;;;;;;;;;;;4358141;32;20361;-63
2020/12/14 13:54:33;;;;;;;;;;;;;;;;;;4289952;32;20064;-71
2020/12/14 13:56:58;;;;;;;;;;;;;;;;;;4343582;33;19996;-72
2020/12/14 13:59:24;;;;;;;;;;;;;;;;;;4329955;33;20059;-73
2020/12/14 14:01:49;;;;;;;;;;;;;;;;;;4318971;32;20010;-74
2020/12/14 14:04:15;;;;;;;;;;;;;;;;;;4355441;32;20010;-70
2020/12/14 14:06:46;;;;;;;;;;;;;;;;;;4342968;32;19995;-70
2020/12/14 14:09:11;;;;;;;;;;;;;;;;;;4329373;33;19999;-71
2020/12/14 14:11:37;;;;;;;;;;;;;;;;;;4329607;33;19997;-71
2020/12/14 14:14:02;;;;;;;;;;;;;;;;;;4344221;32;19997;-72
2020/12/14 14:16:28;;;;;;;;;;;;;;;;;;4345591;32;20072;-72
2020/12/14 14:18:53;;;;;;;;;;;;;;;;;;4359266;32;20071;-74
2020/12/14 14:21:19;;;;;;;;;;;;;;;;;;4344247;32;20740;-72
2020/12/14 14:23:44;;;;;;;;;;;;;;;;;;4326009;33;19981;-72
2020/12/14 14:26:10;;;;;;;;;;;;;;;;;;4330828;33;20434;-73
2020/12/14 14:28:35;;;;;;;;;;;;;;;;;;4330400;33;19994;-72
2020/12/14 14:31:01;;;;;;;;;;;;;;;;;;4327863;33;20354;-74
2020/12/14 14:33:26;;;;;;;;;;;;;;;;;;4326883;33;19983;-73
2020/12/14 14:35:52;;;;;;;;;;;;;;;;;;4331086;33;20068;-73
2020/12/14 14:38:18;;;;;;;;;;;;;;;;;;4342407;33;20064;-74
2020/12/14 14:40:43;;;;;;;;;;;;;;;;;;4344176;33;20203;-74
2020/12/14 14:43:10;;;;;;;;;;;;;;;;;;4330785;33;20074;-75
2020/12/14 14:45:35;;;;;;;;;;;;;;;;;;4330601;33;19975;-75
2020/12/14 14:48:01;;;;;;;;;;;;;;;;;;4315914;33;20385;-73
2020/12/14 14:50:28;;;;;;;;;;;;;;;;;;4297628;33;19998;-73
2020/12/14 14:52:56;;;;;;;;;;;;;;;;;;4305764;33;19986;-71
2020/12/14 14:55:21;;;;;;;;;;;;;;;;;;4293697;33;20076;-65
2020/12/14 14:57:47;;;;;;;;;;;;;;;;;;4319310;33;20011;-72
2020/12/14 15:00:12;;;;;;;;;;;;;;;;;;4319366;33;19998;-72
2020/12/14 15:02:38;;;;;;;;;;;;;;;;;;4305855;33;20039;-71
2020/12/14 15:05:03;;;;;;;;;;;;;;;;;;4333478;33;19998;-72
2020/12/14 15:07:29;;;;;;;;;;;;;;;;;;4306684;33;19978;-70
2020/12/14 15:09:54;;;;;;;;;;;;;;;;;;4324996;33;19999;-72
2020/12/14 15:12:20;;;;;;;;;;;;;;;;;;4306036;33;20065;-71
2020/12/14 15:14:47;;;;;;;;;;;;;;;;;;4293599;33;19979;-71
2020/12/14 15:17:12;;;;;;;;;;;;;;;;;;4305014;33;20390;-72
2020/12/14 15:19:38;;;;;;;;;;;;;;;;;;4304642;33;19978;-72
2020/12/14 15:22:03;;;;;;;;;;;;;;;;;;4318156;33;20006;-72
2020/12/14 15:24:29;;;;;;;;;;;;;;;;;;4305028;33;19988;-72
2020/12/14 15:26:54;;;;;;;;;;;;;;;;;;4304933;33;20365;-72
2020/12/14 15:29:20;;;;;;;;;;;;;;;;;;4318601;33;20065;-72
2020/12/14 15:31:45;;;;;;;;;;;;;;;;;;4330149;33;19995;-71
2020/12/14 15:34:11;;;;;;;;;;;;;;;;;;4320508;33;19986;-72
2020/12/14 15:36:37;;;;;;;;;;;;;;;;;;4332383;33;20003;-72
2020/12/14 15:39:02;;;;;;;;;;;;;;;;;;4319374;33;19974;-72
2020/12/14 15:41:28;;;;;;;;;;;;;;;;;;4308052;33;20035;-72
2020/12/14 15:43:53;;;;;;;;;;;;;;;;;;4320396;33;19986;-73
2020/12/14 15:46:19;;;;;;;;;;;;;;;;;;4319922;33;20010;-72
2020/12/14 15:48:45;;;;;;;;;;;;;;;;;;4319962;33;19978;-72
2020/12/14 15:51:11;;;;;;;;;;;;;;;;;;4319715;33;19998;-72
2020/12/14 15:53:36;;;;;;;;;;;;;;;;;;4308046;33;20080;-72
2020/12/14 15:56:02;;;;;;;;;;;;;;;;;;4307877;33;19986;-72
2020/12/14 15:58:27;;;;;;;;;;;;;;;;;;4319712;33;19971;-73
2020/12/14 16:00:53;;;;;;;;;;;;;;;;;;4307629;33;19999;-72
2020/12/14 16:03:21;;;;;;;;;;;;;;;;;;4295196;33;19985;-72
2020/12/14 16:05:46;;;;;;;;;;;;;;;;;;4319545;33;19991;-72
2020/12/14 16:08:12;;;;;;;;;;;;;;;;;;4319719;33;20350;-72
2020/12/14 16:10:38;;;;;;;;;;;;;;;;;;4319294;33;20416;-72
2020/12/14 16:13:04;;;;;;;;;;;;;;;;;;4319900;33;20461;-72
2020/12/14 16:15:29;;;;;;;;;;;;;;;;;;4319586;33;20002;-72
2020/12/14 16:17:55;;;;;;;;;;;;;;;;;;4319770;33;20337;-72
2020/12/14 16:20:20;;;;;;;;;;;;;;;;;;4319246;33;19986;-72
2020/12/14 16:22:46;;;;;;;;;;;;;;;;;;4333397;33;20060;-72
2020/12/14 16:25:12;;;;;;;;;;;;;;;;;;4319744;33;20393;-72
2020/12/14 16:27:38;;;;;;;;;;;;;;;;;;4319496;33;20346;-72
2020/12/14 16:30:04;;;;;;;;;;;;;;;;;;4316852;33;20397;-72
2020/12/14 16:32:30;;;;;;;;;;;;;;;;;;4304722;33;20069;-72
2020/12/14 16:34:55;;;;;;;;;;;;;;;;;;4304637;33;19995;-72
2020/12/14 16:37:21;;;;;;;;;;;;;;;;;;4304733;33;20066;-72
2020/12/14 16:39:46;;;;;;;;;;;;;;;;;;4313879;33;19976;-72
2020/12/14 16:42:12;;;;;;;;;;;;;;;;;;4302394;33;19983;-72
2020/12/14 16:44:37;;;;;;;;;;;;;;;;;;4302103;33;20010;-72
2020/12/14 16:47:03;;;;;;;;;;;;;;;;;;4302346;33;19986;-71
2020/12/14 16:49:29;;;;;;;;;;;;;;;;;;4301817;33;19990;-71
2020/12/14 16:51:54;;;;;;;;;;;;;;;;;;4301834;33;20057;-72
2020/12/14 16:54:20;;;;;;;;;;;;;;;;;;4302102;33;20410;-72
2020/12/14 16:56:49;;;;;;;;;;;;;;;;;;4301801;33;19987;-72
2020/12/14 16:59:15;;;;;;;;;;;;;;;;;;4290021;33;19971;-73
2020/12/14 17:01:40;;;;;;;;;;;;;;;;;;4303295;33;19976;-71
2020/12/14 17:04:10;;;;;;;;;;;;;;;;;;4290026;33;19983;-72
2020/12/14 17:06:36;;;;;;;;;;;;;;;;;;4290377;33;20066;-72
2020/12/14 17:09:02;;;;;;;;;;;;;;;;;;4301756;33;19999;-72
2020/12/14 17:11:27;;;;;;;;;;;;;;;;;;4312585;33;19998;-72
2020/12/14 17:13:53;;;;;;;;;;;;;;;;;;4317487;33;19980;-73
2020/12/14 17:16:19;;;;;;;;;;;;;;;;;;4304024;33;19979;-72
2020/12/14 17:18:45;;;;;;;;;;;;;;;;;;4316456;33;20006;-72
2020/12/14 17:21:11;;;;;;;;;;;;;;;;;;4328439;33;19990;-72
2020/12/14 17:23:36;;;;;;;;;;;;;;;;;;4304337;33;19975;-74
2020/12/14 17:26:03;;;;;;;;;;;;;;;;;;4316950;33;19978;-72
2020/12/14 17:28:28;;;;;;;;;;;;;;;;;;4304035;33;19979;-72
2020/12/14 17:30:54;;;;;;;;;;;;;;;;;;4304327;33;19990;-72
2020/12/14 17:33:19;;;;;;;;;;;;;;;;;;4303823;33;20361;-72
2020/12/14 17:35:47;;;;;;;;;;;;;;;;;;4304185;33;20089;-72
2020/12/14 17:38:13;;;;;;;;;;;;;;;;;;4316687;33;19991;-72
2020/12/14 17:40:38;;;;;;;;;;;;;;;;;;4316431;33;20053;-72
2020/12/14 17:43:04;;;;;;;;;;;;;;;;;;4318042;33;20006;-72
2020/12/14 17:45:29;;;;;;;;;;;;;;;;;;4292285;33;19990;-72
2020/12/14 17:47:55;;;;;;;;;;;;;;;;;;4315794;33;20377;-72
2020/12/14 17:50:21;;;;;;;;;;;;;;;;;;4317672;33;19994;-72
2020/12/14 17:52:46;;;;;;;;;;;;;;;;;;4328100;33;20036;-72
2020/12/14 17:55:12;;;;;;;;;;;;;;;;;;4303946;33;20066;-72
2020/12/14 17:57:37;;;;;;;;;;;;;;;;;;4315962;33;20410;-72
2020/12/14 18:00:14;;;;;;;;;;;;;;;;;;4303956;33;20352;-72
2020/12/14 18:02:39;;;;;;;;;;;;;;;;;;4316084;33;19998;-72
2020/12/14 18:05:05;;;;;;;;;;;;;;;;;;4315815;33;20449;-72
2020/12/14 18:07:31;;;;;;;;;;;;;;;;;;4317662;33;20067;-72
2020/12/14 18:09:56;;;;;;;;;;;;;;;;;;4303555;33;19975;-72
2020/12/14 18:12:22;;;;;;;;;;;;;;;;;;4316018;33;19991;-73
2020/12/14 18:14:47;;;;;;;;;;;;;;;;;;4315970;33;20080;-72
2020/12/14 18:17:13;;;;;;;;;;;;;;;;;;4315908;33;19991;-72
2020/12/14 18:19:38;;;;;;;;;;;;;;;;;;4315640;33;20077;-72
2020/12/14 18:22:04;;;;;;;;;;;;;;;;;;4303761;33;20428;-72
2020/12/14 18:24:30;;;;;;;;;;;;;;;;;;4316132;33;20061;-72
2020/12/14 18:26:56;;;;;;;;;;;;;;;;;;4318952;33;19975;-72
2020/12/14 18:29:22;;;;;;;;;;;;;;;;;;4318206;33;19975;-72
2020/12/14 18:31:51;;;;;;;;;;;;;;;;;;4318427;33;20089;-72
2020/12/14 21:24:17;;;;;;;;;;;;;;;;;;4293705;33;19973;-72
2020/12/14 21:26:43;;;;;;;;;;;;;;;;;;4305236;33;20021;-72
2020/12/14 21:29:08;;;;;;;;;;;;;;;;;;4317688;33;20089;-72
2020/12/14 21:31:34;;;;;;;;;;;;;;;;;;4316371;33;20006;-73
2020/12/14 21:34:02;;;;;;;;;;;;;;;;;;4332092;33;19975;-73
2020/12/14 21:36:28;;;;;;;;;;;;;;;;;;4318470;33;19986;-73
2020/12/14 21:38:56;;;;;;;;;;;;;;;;;;4316103;33;19995;-72
2020/12/14 21:41:25;;;;;;;;;;;;;;;;;;4316923;33;19987;-72
2020/12/14 21:43:51;;;;;;;;;;;;;;;;;;4316238;33;20053;-72
2020/12/14 21:46:17;;;;;;;;;;;;;;;;;;4316368;33;20006;-72
2020/12/14 21:48:43;;;;;;;;;;;;;;;;;;4316347;33;20383;-72
2020/12/14 21:51:09;;;;;;;;;;;;;;;;;;4317221;33;20436;-72
2020/12/14 21:53:34;;;;;;;;;;;;;;;;;;4315821;33;19979;-72
2020/12/14 21:56:00;;;;;;;;;;;;;;;;;;4315987;33;19975;-72
2020/12/14 21:58:25;;;;;;;;;;;;;;;;;;4315901;33;20008;-72
2020/12/14 22:00:51;;;;;;;;;;;;;;;;;;4317800;33;19993;-72
2020/12/14 22:03:16;;;;;;;;;;;;;;;;;;4320307;33;19987;-72
2020/12/14 22:05:42;;;;;;;;;;;;;;;;;;4320300;33;19991;-72
2020/12/14 22:08:07;;;;;;;;;;;;;;;;;;4318595;33;19979;-72
2020/12/14 22:10:33;;;;;;;;;;;;;;;;;;4319054;33;19983;-72
2020/12/14 22:12:59;;;;;;;;;;;;;;;;;;4306902;33;20011;-73
2020/12/14 22:15:24;;;;;;;;;;;;;;;;;;4320415;33;19986;-72
2020/12/14 22:17:50;;;;;;;;;;;;;;;;;;4318390;33;19991;-72
2020/12/14 22:20:15;;;;;;;;;;;;;;;;;;4318760;33;20012;-72
2020/12/14 22:22:41;;;;;;;;;;;;;;;;;;4318693;33;20512;-72
2020/12/14 22:25:06;;;;;;;;;;;;;;;;;;4306716;33;20402;-72
2020/12/14 22:29:56;;;;;;;;;;;;;;;;;;3811427;37;19951;-72
2020/12/14 22:32:21;;;;;;;;;;;;;;;;;;4388895;32;19964;-72
2020/12/14 22:34:47;;;;;;;;;;;;;;;;;;4390288;32;20001;-72
2020/12/14 22:37:12;;;;;;;;;;;;;;;;;;4388411;32;19982;-72
2020/12/14 22:39:52;;;;;;;;;;;;;;;;;;3857765;37;20371;-73
2020/12/14 22:42:17;;;;;;;;;;;;;;;;;;4420388;32;19965;-73
2020/12/14 22:44:43;;;;;;;;;;;;;;;;;;4405986;32;20061;-72
2020/12/14 22:47:09;;;;;;;;;;;;;;;;;;4393702;32;20049;-71
2020/12/14 22:49:36;;;;;;;;;;;;;;;;;;4393580;32;19973;-72
2020/12/14 22:52:02;;;;;;;;;;;;;;;;;;4419832;32;19989;-72
2020/12/14 22:54:27;;;;;;;;;;;;;;;;;;4380413;32;19973;-72
2020/12/14 22:56:53;;;;;;;;;;;;;;;;;;4393636;32;20000;-72
2020/12/14 22:59:18;;;;;;;;;;;;;;;;;;4394320;32;20391;-72
2020/12/14 23:01:44;;;;;;;;;;;;;;;;;;4409324;32;19983;-72
2020/12/14 23:04:10;;;;;;;;;;;;;;;;;;4407081;32;19993;-72
2020/12/14 23:06:35;;;;;;;;;;;;;;;;;;4405643;32;20375;-71
2020/12/14 23:09:01;;;;;;;;;;;;;;;;;;4420307;32;20355;-71
2020/12/14 23:11:26;;;;;;;;;;;;;;;;;;4405475;32;19992;-73
2020/12/14 23:13:52;;;;;;;;;;;;;;;;;;4406067;32;19989;-71
2020/12/14 23:16:18;;;;;;;;;;;;;;;;;;4405764;32;20077;-73
2020/12/14 23:18:43;;;;;;;;;;;;;;;;;;4405477;32;19996;-72
2020/12/14 23:21:09;;;;;;;;;;;;;;;;;;4405267;32;20488;-72
2020/12/14 23:23:34;;;;;;;;;;;;;;;;;;4392583;32;20531;-72
2020/12/14 23:26:00;;;;;;;;;;;;;;;;;;4390137;32;20424;-73
2020/12/14 23:28:25;;;;;;;;;;;;;;;;;;4390171;32;20384;-72
2020/12/14 23:30:51;;;;;;;;;;;;;;;;;;4387828;32;19989;-72
2020/12/14 23:33:16;;;;;;;;;;;;;;;;;;4375481;32;20079;-72
2020/12/14 23:35:42;;;;;;;;;;;;;;;;;;4389145;32;19978;-72
2020/12/14 23:38:07;;;;;;;;;;;;;;;;;;4362492;32;19993;-72
2020/12/14 23:40:33;;;;;;;;;;;;;;;;;;4375304;32;19989;-72
2020/12/14 23:42:58;;;;;;;;;;;;;;;;;;4375264;32;19989;-72
2020/12/14 23:47:04;;;;;;;;;;;;;;;;;;3811847;37;19966;-72
2020/12/14 23:49:31;;;;;;;;;;;;;;;;;;4376697;32;19973;-72
2020/12/14 23:52:00;;;;;;;;;;;;;;;;;;4388848;32;19989;-72
2020/12/14 23:54:26;;;;;;;;;;;;;;;;;;4390075;32;19980;-72
2020/12/14 23:56:53;;;;;;;;;;;;;;;;;;4375878;32;20025;-72
2020/12/14 23:59:18;;;;;;;;;;;;;;;;;;4388545;32;20120;-72
